NORTHEAST SUFFOLK  -  Winter Weather Advisory Winter Weather Advisory        NORTHERN NASSAU  -  Winter Weather Advisory Winter Weather Advisory        NORTHWEST SUFFOLK  -  Winter Weather Advisory Winter Weather Advisory        SOUTHEAST SUFFOLK  -  Winter Weather Advisory Winter Weather Advisory        SOUTHERN NASSAU  -  Winter Weather Advisory Winter Weather Advisory        SOUTHWEST SUFFOLK  -  Winter Weather Advisory Winter Weather Advisory      

Active alerts

Northern Nassau
  Details for Northern Nassau Winter Weather Advisory
Southern Nassau
  Details for Southern Nassau Winter Weather Advisory
Northwest Suffolk
  Details for Northwest Suffolk Winter Weather Advisory
Southwest Suffolk
  Details for Southwest Suffolk Winter Weather Advisory
Northeast Suffolk
  Details for Northeast Suffolk Winter Weather Advisory
Southeast Suffolk
  Details for Southeast Suffolk Winter Weather Advisory


WXM80 ListenWXM80 Stop

You find our weather info also at:

UK Metoffice

WeatherCloud

Weather Underground

Northeastern Weather Network

AWEKAS

Citizen Weather Observer Program (CWOP)

HAMweather, WeatherForYou, PWS Weather


Weather Underground History page Text

Daily Summary for August 5, 2017 Units:  Both    English   Metric
« Previous Day
Next Day »
Daily Weekly Monthly Yearly Custom
  High: Low: Average:
Temperature: 82.8 °F /  28.2 °C 70.1 °F /  21.2 °C 75.4 °F /  24.1 °C
Dew Point: 73.3 °F /  22.9 °C 57.8 °F /  14.3 °C 68.7 °F /  20.4 °C
Humidity: 97 % 60 % 81 %
Wind Speed: 7.6 mph /  12.2 km/h - 2.1 mph /  3.4 km/h
Wind Gust: 15.0 mph /  24.1 km/h - -
Wind:- - SW
Pressure: 29.92 in /  1013.1 hPa 29.77 in /  1008 hPa -
Precipitation: 0.01 in /  0.25 mm    
Historical Graphs
 
 
Tabular Data for August 5, 2017
Time Temperature Dew Point Pressure Wind Wind Speed Wind Gust Humidity Rainfall Rate (Hourly)
00:00 74.9 °F /  23.8 °C 72.1 °F /  22.3 °C 29.89 in /  1012.1 hPa SE 1.7 mph /  2.7 km/h 3.5 mph /  5.6 km/h 91 % 0.00 in /  0 mm
00:05 74.9 °F /  23.8 °C 72.1 °F /  22.3 °C 29.89 in /  1012.1 hPa South 1.7 mph /  2.7 km/h 10.4 mph /  16.7 km/h 91 % 0.00 in /  0 mm
00:11 75.0 °F /  23.9 °C 72.2 °F /  22.3 °C 29.89 in /  1012.1 hPa SSE 0.9 mph /  1.4 km/h 3.5 mph /  5.6 km/h 91 % 0.00 in /  0 mm
00:16 75.0 °F /  23.9 °C 72.2 °F /  22.3 °C 29.89 in /  1012.1 hPa SSE 3.1 mph /  5 km/h 6.9 mph /  11.1 km/h 91 % 0.00 in /  0 mm
00:21 75.1 °F /  23.9 °C 72.3 °F /  22.4 °C 29.89 in /  1012.1 hPa SE 3.0 mph /  4.8 km/h 10.0 mph /  16.1 km/h 91 % 0.00 in /  0 mm
00:26 75.1 °F /  23.9 °C 72.3 °F /  22.4 °C 29.89 in /  1012.1 hPa SE 2.0 mph /  3.2 km/h 6.0 mph /  9.7 km/h 91 % 0.00 in /  0 mm
00:31 75.2 °F /  24 °C 72.1 °F /  22.3 °C 29.89 in /  1012.1 hPa SE 1.0 mph /  1.6 km/h 6.0 mph /  9.7 km/h 90 % 0.00 in /  0 mm
00:36 75.3 °F /  24.1 °C 72.1 °F /  22.3 °C 29.89 in /  1012.1 hPa Calm   3.0 mph /  4.8 km/h 90 % 0.00 in /  0 mm
00:41 75.2 °F /  24 °C 71.7 °F /  22.1 °C 29.89 in /  1012.1 hPa South 1.0 mph /  1.6 km/h 10.0 mph /  16.1 km/h 89 % 0.00 in /  0 mm
00:45 75.2 °F /  24 °C 71.7 °F /  22.1 °C 29.88 in /  1011.7 hPa SSE 4.2 mph /  6.8 km/h 5.8 mph /  9.3 km/h 89 % 0.00 in /  0 mm
00:50 75.2 °F /  24 °C 71.7 °F /  22.1 °C 29.89 in /  1012.1 hPa SE 1.0 mph /  1.6 km/h 3.5 mph /  5.6 km/h 89 % 0.00 in /  0 mm
00:56 75.2 °F /  24 °C 71.4 °F /  21.9 °C 29.88 in /  1011.7 hPa Calm   6.0 mph /  9.7 km/h 88 % 0.00 in /  0 mm
01:01 75.2 °F /  24 °C 71.4 °F /  21.9 °C 29.88 in /  1011.7 hPa South 0.4 mph /  0.6 km/h 2.3 mph /  3.7 km/h 88 % 0.00 in /  0 mm
01:06 75.2 °F /  24 °C 71.4 °F /  21.9 °C 29.88 in /  1011.7 hPa SSE 1.5 mph /  2.4 km/h 3.5 mph /  5.6 km/h 88 % 0.00 in /  0 mm
01:11 75.2 °F /  24 °C 71.4 °F /  21.9 °C 29.88 in /  1011.7 hPa SSE 0.9 mph /  1.4 km/h 3.5 mph /  5.6 km/h 88 % 0.00 in /  0 mm
01:16 75.2 °F /  24 °C 71.4 °F /  21.9 °C 29.88 in /  1011.7 hPa SE 0.3 mph /  0.5 km/h 3.5 mph /  5.6 km/h 88 % 0.00 in /  0 mm
01:21 75.2 °F /  24 °C 71.7 °F /  22.1 °C 29.88 in /  1011.7 hPa SSE 1.1 mph /  1.8 km/h 3.5 mph /  5.6 km/h 89 % 0.00 in /  0 mm
01:26 75.2 °F /  24 °C 71.7 °F /  22.1 °C 29.87 in /  1011.4 hPa ESE 1.3 mph /  2.1 km/h 3.5 mph /  5.6 km/h 89 % 0.00 in /  0 mm
01:31 75.2 °F /  24 °C 71.7 °F /  22.1 °C 29.87 in /  1011.4 hPa SE 2.3 mph /  3.7 km/h 6.9 mph /  11.1 km/h 89 % 0.00 in /  0 mm
01:36 75.2 °F /  24 °C 71.7 °F /  22.1 °C 29.87 in /  1011.4 hPa SSE 0.7 mph /  1.1 km/h 3.5 mph /  5.6 km/h 89 % 0.00 in /  0 mm
01:41 75.2 °F /  24 °C 71.7 °F /  22.1 °C 29.87 in /  1011.4 hPa SSE 2.5 mph /  4 km/h 6.9 mph /  11.1 km/h 89 % 0.00 in /  0 mm
01:46 75.3 °F /  24.1 °C 71.8 °F /  22.1 °C 29.86 in /  1011.1 hPa SSE 1.7 mph /  2.7 km/h 4.0 mph /  6.4 km/h 89 % 0.00 in /  0 mm
01:51 75.3 °F /  24.1 °C 71.8 °F /  22.1 °C 29.86 in /  1011.1 hPa SE 0.3 mph /  0.5 km/h 1.2 mph /  1.9 km/h 89 % 0.00 in /  0 mm
01:56 75.4 °F /  24.1 °C 71.9 °F /  22.2 °C 29.86 in /  1011.1 hPa SSE 0.1 mph /  0.2 km/h 2.0 mph /  3.2 km/h 89 % 0.00 in /  0 mm
02:01 75.4 °F /  24.1 °C 71.9 °F /  22.2 °C 29.86 in /  1011.1 hPa SSE 0.7 mph /  1.1 km/h 3.5 mph /  5.6 km/h 89 % 0.00 in /  0 mm
02:06 75.4 °F /  24.1 °C 71.9 °F /  22.2 °C 29.86 in /  1011.1 hPa South 3.9 mph /  6.3 km/h 9.0 mph /  14.5 km/h 89 % 0.00 in /  0 mm
02:11 75.4 °F /  24.1 °C 72.3 °F /  22.4 °C 29.85 in /  1010.7 hPa SSE 0.3 mph /  0.5 km/h 2.3 mph /  3.7 km/h 90 % 0.00 in /  0 mm
02:16 75.4 °F /  24.1 °C 72.3 °F /  22.4 °C 29.85 in /  1010.7 hPa SE 4.7 mph /  7.6 km/h 7.0 mph /  11.3 km/h 90 % 0.00 in /  0 mm
02:21 75.5 °F /  24.2 °C 72.4 °F /  22.4 °C 29.85 in /  1010.7 hPa SE 6.1 mph /  9.8 km/h 9.0 mph /  14.5 km/h 90 % 0.00 in /  0 mm
02:26 75.5 °F /  24.2 °C 72.4 °F /  22.4 °C 29.85 in /  1010.7 hPa SE 4.0 mph /  6.4 km/h 6.9 mph /  11.1 km/h 90 % 0.00 in /  0 mm
02:27 75.5 °F /  24.2 °C 72.4 °F /  22.4 °C 29.85 in /  1010.7 hPa SSE 3.1 mph /  5 km/h 6.9 mph /  11.1 km/h 90 % 0.00 in /  0 mm
02:32 75.5 °F /  24.2 °C 72.4 °F /  22.4 °C 29.85 in /  1010.7 hPa SSE 4.5 mph /  7.2 km/h 8.1 mph /  13 km/h 90 % 0.00 in /  0 mm
02:37 75.5 °F /  24.2 °C 72.4 °F /  22.4 °C 29.85 in /  1010.7 hPa Calm   1.0 mph /  1.6 km/h 90 % 0.00 in /  0 mm
02:42 75.5 °F /  24.2 °C 72.4 °F /  22.4 °C 29.85 in /  1010.7 hPa SE 0.6 mph /  1 km/h 2.3 mph /  3.7 km/h 90 % 0.00 in /  0 mm
02:47 75.5 °F /  24.2 °C 72.4 °F /  22.4 °C 29.85 in /  1010.7 hPa SW 0.4 mph /  0.6 km/h 3.5 mph /  5.6 km/h 90 % 0.00 in /  0 mm
02:52 75.5 °F /  24.2 °C 72.4 °F /  22.4 °C 29.85 in /  1010.7 hPa SSE 0.4 mph /  0.6 km/h 2.3 mph /  3.7 km/h 90 % 0.00 in /  0 mm
02:57 75.4 °F /  24.1 °C 72.3 °F /  22.4 °C 29.85 in /  1010.7 hPa SW 1.9 mph /  3.1 km/h 4.6 mph /  7.4 km/h 90 % 0.00 in /  0 mm
03:02 75.4 °F /  24.1 °C 72.3 °F /  22.4 °C 29.84 in /  1010.4 hPa SSE 0.2 mph /  0.3 km/h 2.3 mph /  3.7 km/h 90 % 0.00 in /  0 mm
03:07 75.4 °F /  24.1 °C 72.3 °F /  22.4 °C 29.84 in /  1010.4 hPa SSE 0.6 mph /  1 km/h 3.5 mph /  5.6 km/h 90 % 0.00 in /  0 mm
03:12 75.4 °F /  24.1 °C 72.3 °F /  22.4 °C 29.84 in /  1010.4 hPa South 3.7 mph /  6 km/h 6.9 mph /  11.1 km/h 90 % 0.00 in /  0 mm
03:17 75.4 °F /  24.1 °C 72.3 °F /  22.4 °C 29.84 in /  1010.4 hPa Calm     90 % 0.00 in /  0 mm
03:22 75.4 °F /  24.1 °C 72.3 °F /  22.4 °C 29.84 in /  1010.4 hPa SSE 0.4 mph /  0.6 km/h 1.2 mph /  1.9 km/h 90 % 0.00 in /  0 mm
03:27 75.4 °F /  24.1 °C 72.3 °F /  22.4 °C 29.84 in /  1010.4 hPa SE 0.4 mph /  0.6 km/h 2.3 mph /  3.7 km/h 90 % 0.00 in /  0 mm
03:32 75.3 °F /  24.1 °C 72.2 °F /  22.3 °C 29.83 in /  1010 hPa SSW 0.6 mph /  1 km/h 3.5 mph /  5.6 km/h 90 % 0.00 in /  0 mm
03:37 75.3 °F /  24.1 °C 72.2 °F /  22.3 °C 29.83 in /  1010 hPa Calm   1.2 mph /  1.9 km/h 90 % 0.00 in /  0 mm
03:42 75.2 °F /  24 °C 72.1 °F /  22.3 °C 29.83 in /  1010 hPa SE 0.6 mph /  1 km/h 3.5 mph /  5.6 km/h 90 % 0.00 in /  0 mm
03:47 75.1 °F /  23.9 °C 72.0 °F /  22.2 °C 29.83 in /  1010 hPa SE 0.2 mph /  0.3 km/h   90 % 0.00 in /  0 mm
03:52 75.1 °F /  23.9 °C 72.0 °F /  22.2 °C 29.83 in /  1010 hPa Calm   1.2 mph /  1.9 km/h 90 % 0.00 in /  0 mm
03:57 75.0 °F /  23.9 °C 71.9 °F /  22.2 °C 29.83 in /  1010 hPa Calm     90 % 0.00 in /  0 mm
04:02 74.9 °F /  23.8 °C 71.4 °F /  21.9 °C 29.83 in /  1010 hPa SE 0.6 mph /  1 km/h 3.0 mph /  4.8 km/h 89 % 0.00 in /  0 mm
04:07 74.8 °F /  23.8 °C 71.3 °F /  21.8 °C 29.82 in /  1009.7 hPa Calm   2.3 mph /  3.7 km/h 89 % 0.00 in /  0 mm
04:12 74.7 °F /  23.7 °C 71.2 °F /  21.8 °C 29.83 in /  1010 hPa Calm   1.2 mph /  1.9 km/h 89 % 0.00 in /  0 mm
04:17 74.6 °F /  23.7 °C 71.1 °F /  21.7 °C 29.83 in /  1010 hPa SE 0.4 mph /  0.6 km/h 1.0 mph /  1.6 km/h 89 % 0.00 in /  0 mm
04:23 74.5 °F /  23.6 °C 71.4 °F /  21.9 °C 29.82 in /  1009.7 hPa SE 1.0 mph /  1.6 km/h 2.3 mph /  3.7 km/h 90 % 0.00 in /  0 mm
04:28 74.5 °F /  23.6 °C 71.4 °F /  21.9 °C 29.82 in /  1009.7 hPa SE 2.9 mph /  4.7 km/h 5.0 mph /  8 km/h 90 % 0.00 in /  0 mm
04:33 74.4 °F /  23.6 °C 71.3 °F /  21.8 °C 29.82 in /  1009.7 hPa SE 1.9 mph /  3.1 km/h 4.0 mph /  6.4 km/h 90 % 0.00 in /  0 mm
04:38 74.4 °F /  23.6 °C 71.6 °F /  22 °C 29.82 in /  1009.7 hPa Calm   1.2 mph /  1.9 km/h 91 % 0.00 in /  0 mm
04:43 74.4 °F /  23.6 °C 71.6 °F /  22 °C 29.82 in /  1009.7 hPa SE 0.4 mph /  0.6 km/h 3.5 mph /  5.6 km/h 91 % 0.00 in /  0 mm
04:48 74.5 °F /  23.6 °C 72.0 °F /  22.2 °C 29.82 in /  1009.7 hPa SE 1.8 mph /  2.9 km/h 3.5 mph /  5.6 km/h 92 % 0.00 in /  0 mm
04:53 74.5 °F /  23.6 °C 72.0 °F /  22.2 °C 29.82 in /  1009.7 hPa SE 1.8 mph /  2.9 km/h 3.5 mph /  5.6 km/h 92 % 0.00 in /  0 mm
04:58 74.6 °F /  23.7 °C 72.4 °F /  22.4 °C 29.82 in /  1009.7 hPa SE 0.3 mph /  0.5 km/h 5.0 mph /  8 km/h 93 % 0.00 in /  0 mm
05:03 74.5 °F /  23.6 °C 72.3 °F /  22.4 °C 29.82 in /  1009.7 hPa SE 0.3 mph /  0.5 km/h 3.5 mph /  5.6 km/h 93 % 0.00 in /  0 mm
05:08 74.5 °F /  23.6 °C 72.3 °F /  22.4 °C 29.81 in /  1009.4 hPa SE 1.2 mph /  1.9 km/h 3.5 mph /  5.6 km/h 93 % 0.00 in /  0 mm
05:13 74.4 °F /  23.6 °C 72.2 °F /  22.3 °C 29.81 in /  1009.4 hPa SSE 4.0 mph /  6.4 km/h 8.1 mph /  13 km/h 93 % 0.00 in /  0 mm
05:18 74.4 °F /  23.6 °C 72.6 °F /  22.6 °C 29.81 in /  1009.4 hPa SE 1.6 mph /  2.6 km/h 6.0 mph /  9.7 km/h 94 % 0.00 in /  0 mm
05:23 74.4 °F /  23.6 °C 72.6 °F /  22.6 °C 29.81 in /  1009.4 hPa SSE 2.5 mph /  4 km/h 6.9 mph /  11.1 km/h 94 % 0.00 in /  0 mm
05:28 74.4 °F /  23.6 °C 72.6 °F /  22.6 °C 29.81 in /  1009.4 hPa SE 0.6 mph /  1 km/h 3.5 mph /  5.6 km/h 94 % 0.00 in /  0 mm
05:33 74.4 °F /  23.6 °C 72.6 °F /  22.6 °C 29.81 in /  1009.4 hPa SE 0.5 mph /  0.8 km/h 3.5 mph /  5.6 km/h 94 % 0.00 in /  0 mm
05:38 74.3 °F /  23.5 °C 72.5 °F /  22.5 °C 29.81 in /  1009.4 hPa SSE 1.9 mph /  3.1 km/h 4.6 mph /  7.4 km/h 94 % 0.00 in /  0 mm
05:43 74.3 °F /  23.5 °C 72.5 °F /  22.5 °C 29.82 in /  1009.7 hPa Calm   1.0 mph /  1.6 km/h 94 % 0.00 in /  0 mm
05:48 74.3 °F /  23.5 °C 72.5 °F /  22.5 °C 29.81 in /  1009.4 hPa SE 0.9 mph /  1.4 km/h 2.3 mph /  3.7 km/h 94 % 0.00 in /  0 mm
05:53 74.3 °F /  23.5 °C 72.5 °F /  22.5 °C 29.81 in /  1009.4 hPa SE 0.1 mph /  0.2 km/h 1.2 mph /  1.9 km/h 94 % 0.00 in /  0 mm
05:58 74.3 °F /  23.5 °C 72.5 °F /  22.5 °C 29.81 in /  1009.4 hPa SE 0.5 mph /  0.8 km/h 3.5 mph /  5.6 km/h 94 % 0.00 in /  0 mm
06:03 74.2 °F /  23.4 °C 72.4 °F /  22.4 °C 29.81 in /  1009.4 hPa SSW 0.1 mph /  0.2 km/h 3.5 mph /  5.6 km/h 94 % 0.00 in /  0 mm
06:08 74.1 °F /  23.4 °C 72.3 °F /  22.4 °C 29.81 in /  1009.4 hPa SSE 1.3 mph /  2.1 km/h 3.5 mph /  5.6 km/h 94 % 0.00 in /  0 mm
06:13 74.0 °F /  23.3 °C 72.2 °F /  22.3 °C 29.81 in /  1009.4 hPa Calm   2.3 mph /  3.7 km/h 94 % 0.00 in /  0 mm
06:18 73.9 °F /  23.3 °C 72.1 °F /  22.3 °C 29.81 in /  1009.4 hPa SSE 0.5 mph /  0.8 km/h 1.2 mph /  1.9 km/h 94 % 0.00 in /  0 mm
06:23 73.9 °F /  23.3 °C 72.1 °F /  22.3 °C 29.82 in /  1009.7 hPa SSE 0.1 mph /  0.2 km/h 1.2 mph /  1.9 km/h 94 % 0.00 in /  0 mm
06:29 73.8 °F /  23.2 °C 72.0 °F /  22.2 °C 29.82 in /  1009.7 hPa WSW 0.3 mph /  0.5 km/h 1.2 mph /  1.9 km/h 94 % 0.00 in /  0 mm
06:34 73.8 °F /  23.2 °C 72.3 °F /  22.4 °C 29.82 in /  1009.7 hPa SW 1.3 mph /  2.1 km/h 5.8 mph /  9.3 km/h 95 % 0.00 in /  0 mm
06:39 73.8 °F /  23.2 °C 72.3 °F /  22.4 °C 29.82 in /  1009.7 hPa SW 0.1 mph /  0.2 km/h 2.3 mph /  3.7 km/h 95 % 0.00 in /  0 mm
06:44 73.7 °F /  23.2 °C 72.2 °F /  22.3 °C 29.83 in /  1010 hPa SW 1.6 mph /  2.6 km/h 3.5 mph /  5.6 km/h 95 % 0.00 in /  0 mm
06:49 73.7 °F /  23.2 °C 72.2 °F /  22.3 °C 29.83 in /  1010 hPa SW 0.3 mph /  0.5 km/h 2.3 mph /  3.7 km/h 95 % 0.00 in /  0 mm
06:54 73.7 °F /  23.2 °C 72.2 °F /  22.3 °C 29.82 in /  1009.7 hPa Calm     95 % 0.00 in /  0 mm
06:59 73.7 °F /  23.2 °C 72.2 °F /  22.3 °C 29.82 in /  1009.7 hPa SE 1.0 mph /  1.6 km/h 2.3 mph /  3.7 km/h 95 % 0.00 in /  0 mm
07:04 73.7 °F /  23.2 °C 72.2 °F /  22.3 °C 29.80 in /  1009 hPa SE 3.5 mph /  5.6 km/h 8.0 mph /  12.9 km/h 95 % 0.00 in /  0 mm
07:09 73.7 °F /  23.2 °C 72.5 °F /  22.5 °C 29.79 in /  1008.7 hPa SE 5.5 mph /  8.9 km/h 10.4 mph /  16.7 km/h 96 % 0.00 in /  0 mm
07:14 73.7 °F /  23.2 °C 72.5 °F /  22.5 °C 29.79 in /  1008.7 hPa SE 1.2 mph /  1.9 km/h 3.5 mph /  5.6 km/h 96 % 0.00 in /  0 mm
07:19 73.7 °F /  23.2 °C 72.5 °F /  22.5 °C 29.79 in /  1008.7 hPa SSE 1.9 mph /  3.1 km/h 6.9 mph /  11.1 km/h 96 % 0.00 in /  0 mm
07:24 73.7 °F /  23.2 °C 72.5 °F /  22.5 °C 29.79 in /  1008.7 hPa SE 5.8 mph /  9.3 km/h 9.0 mph /  14.5 km/h 96 % 0.00 in /  0 mm
07:29 73.6 °F /  23.1 °C 72.4 °F /  22.4 °C 29.78 in /  1008.4 hPa ESE 6.5 mph /  10.5 km/h 10.4 mph /  16.7 km/h 96 % 0.00 in /  0 mm
07:34 73.6 °F /  23.1 °C 72.4 °F /  22.4 °C 29.78 in /  1008.4 hPa SE 3.5 mph /  5.6 km/h 9.2 mph /  14.8 km/h 96 % 0.00 in /  0 mm
07:39 73.6 °F /  23.1 °C 72.4 °F /  22.4 °C 29.78 in /  1008.4 hPa South 6.8 mph /  10.9 km/h 15.0 mph /  24.1 km/h 96 % 0.00 in /  0 mm
07:44 73.6 °F /  23.1 °C 72.4 °F /  22.4 °C 29.77 in /  1008 hPa SSE 6.1 mph /  9.8 km/h 11.5 mph /  18.5 km/h 96 % 0.00 in /  0 mm
07:49 73.7 °F /  23.2 °C 72.5 °F /  22.5 °C 29.77 in /  1008 hPa ESE 3.0 mph /  4.8 km/h 6.9 mph /  11.1 km/h 96 % 0.00 in /  0 mm
07:54 73.7 °F /  23.2 °C 72.5 °F /  22.5 °C 29.78 in /  1008.4 hPa SSE 4.9 mph /  7.9 km/h 8.0 mph /  12.9 km/h 96 % 0.00 in /  0 mm
08:00 73.7 °F /  23.2 °C 72.8 °F /  22.7 °C 29.78 in /  1008.4 hPa SSE 2.4 mph /  3.9 km/h 6.9 mph /  11.1 km/h 97 % 0.00 in /  0 mm
08:05 73.7 °F /  23.2 °C 72.5 °F /  22.5 °C 29.79 in /  1008.7 hPa South 0.1 mph /  0.2 km/h 8.1 mph /  13 km/h 96 % 0.00 in /  0 mm
08:10 73.4 °F /  23 °C 72.2 °F /  22.3 °C 29.79 in /  1008.7 hPa SSE 4.4 mph /  7.1 km/h 9.2 mph /  14.8 km/h 96 % 0.00 in /  0 mm
08:15 73.0 °F /  22.8 °C 71.5 °F /  21.9 °C 29.79 in /  1008.7 hPa SE 2.0 mph /  3.2 km/h 8.1 mph /  13 km/h 95 % 0.00 in /  0 mm
08:20 72.5 °F /  22.5 °C 71.0 °F /  21.7 °C 29.79 in /  1008.7 hPa SSE 0.1 mph /  0.2 km/h 1.2 mph /  1.9 km/h 95 % 0.00 in /  0 mm
08:25 72.3 °F /  22.4 °C 70.8 °F /  21.6 °C 29.80 in /  1009 hPa SSW 1.9 mph /  3.1 km/h 3.5 mph /  5.6 km/h 95 % 0.00 in /  0 mm
08:30 72.1 °F /  22.3 °C 70.6 °F /  21.4 °C 29.80 in /  1009 hPa SW 1.6 mph /  2.6 km/h 5.8 mph /  9.3 km/h 95 % 0.00 in /  0 mm
08:35 72.1 °F /  22.3 °C 70.6 °F /  21.4 °C 29.80 in /  1009 hPa West 0.9 mph /  1.4 km/h 2.3 mph /  3.7 km/h 95 % 0.00 in /  0 mm
08:40 72.0 °F /  22.2 °C 70.5 °F /  21.4 °C 29.81 in /  1009.4 hPa West 3.4 mph /  5.5 km/h 6.9 mph /  11.1 km/h 95 % 0.00 in /  0 mm
08:45 71.9 °F /  22.2 °C 70.4 °F /  21.3 °C 29.82 in /  1009.7 hPa WSW 1.2 mph /  1.9 km/h 8.1 mph /  13 km/h 95 % 0.00 in /  0 mm
08:50 71.9 °F /  22.2 °C 70.4 °F /  21.3 °C 29.81 in /  1009.4 hPa West 2.0 mph /  3.2 km/h 4.6 mph /  7.4 km/h 95 % 0.00 in /  0 mm
08:55 71.9 °F /  22.2 °C 70.4 °F /  21.3 °C 29.82 in /  1009.7 hPa SSW 2.9 mph /  4.7 km/h 3.5 mph /  5.6 km/h 95 % 0.00 in /  0 mm
09:00 71.8 °F /  22.1 °C 70.3 °F /  21.3 °C 29.82 in /  1009.7 hPa SW 0.3 mph /  0.5 km/h 1.2 mph /  1.9 km/h 95 % 0.00 in /  0 mm
09:06 71.8 °F /  22.1 °C 70.3 °F /  21.3 °C 29.82 in /  1009.7 hPa SW 2.0 mph /  3.2 km/h 4.0 mph /  6.4 km/h 95 % 0.00 in /  0 mm
09:11 71.8 °F /  22.1 °C 70.3 °F /  21.3 °C 29.82 in /  1009.7 hPa WSW 1.0 mph /  1.6 km/h 6.0 mph /  9.7 km/h 95 % 0.00 in /  0 mm
09:16 71.8 °F /  22.1 °C 70.3 °F /  21.3 °C 29.82 in /  1009.7 hPa Calm   6.0 mph /  9.7 km/h 95 % 0.00 in /  0 mm
09:21 71.8 °F /  22.1 °C 70.3 °F /  21.3 °C 29.82 in /  1009.7 hPa Calm     95 % 0.00 in /  0 mm
09:26 71.8 °F /  22.1 °C 70.6 °F /  21.4 °C 29.82 in /  1009.7 hPa WSW 0.6 mph /  1 km/h 3.5 mph /  5.6 km/h 96 % 0.00 in /  0 mm
09:31 71.8 °F /  22.1 °C 70.6 °F /  21.4 °C 29.83 in /  1010 hPa SW 0.1 mph /  0.2 km/h 1.2 mph /  1.9 km/h 96 % 0.00 in /  0 mm
09:36 71.7 °F /  22.1 °C 70.5 °F /  21.4 °C 29.83 in /  1010 hPa Calm     96 % 0.00 in /  0 mm
09:41 71.8 °F /  22.1 °C 70.6 °F /  21.4 °C 29.83 in /  1010 hPa Calm     96 % 0.00 in /  0 mm
09:46 71.7 °F /  22.1 °C 70.5 °F /  21.4 °C 29.83 in /  1010 hPa Calm     96 % 0.00 in /  0 mm
09:51 71.7 °F /  22.1 °C 70.5 °F /  21.4 °C 29.83 in /  1010 hPa Calm     96 % 0.00 in /  0 mm
09:56 71.7 °F /  22.1 °C 70.5 °F /  21.4 °C 29.83 in /  1010 hPa Calm     96 % 0.00 in /  0 mm
10:01 71.8 °F /  22.1 °C 70.6 °F /  21.4 °C 29.83 in /  1010 hPa SW 0.4 mph /  0.6 km/h 2.3 mph /  3.7 km/h 96 % 0.00 in /  0 mm
10:06 71.8 °F /  22.1 °C 70.6 °F /  21.4 °C 29.83 in /  1010 hPa Calm     96 % 0.00 in /  0 mm
10:11 71.9 °F /  22.2 °C 70.7 °F /  21.5 °C 29.83 in /  1010 hPa Calm     96 % 0.00 in /  0 mm
10:16 72.1 °F /  22.3 °C 70.9 °F /  21.6 °C 29.83 in /  1010 hPa Calm   1.2 mph /  1.9 km/h 96 % 0.00 in /  0 mm
10:21 72.4 °F /  22.4 °C 71.2 °F /  21.8 °C 29.83 in /  1010 hPa SW 0.5 mph /  0.8 km/h 3.5 mph /  5.6 km/h 96 % 0.00 in /  0 mm
10:26 72.7 °F /  22.6 °C 71.5 °F /  21.9 °C 29.83 in /  1010 hPa SW 0.2 mph /  0.3 km/h 2.3 mph /  3.7 km/h 96 % 0.00 in /  0 mm
10:31 73.2 °F /  22.9 °C 72.3 °F /  22.4 °C 29.83 in /  1010 hPa SSW 4.0 mph /  6.4 km/h 10.4 mph /  16.7 km/h 97 % 0.00 in /  0 mm
10:36 73.3 °F /  22.9 °C 72.1 °F /  22.3 °C 29.83 in /  1010 hPa West 1.2 mph /  1.9 km/h 3.5 mph /  5.6 km/h 96 % 0.00 in /  0 mm
10:41 73.3 °F /  22.9 °C 72.1 °F /  22.3 °C 29.83 in /  1010 hPa SW 0.3 mph /  0.5 km/h 3.5 mph /  5.6 km/h 96 % 0.00 in /  0 mm
10:46 73.5 °F /  23.1 °C 72.3 °F /  22.4 °C 29.83 in /  1010 hPa West 0.4 mph /  0.6 km/h 3.5 mph /  5.6 km/h 96 % 0.00 in /  0 mm
10:51 73.7 °F /  23.2 °C 72.2 °F /  22.3 °C 29.83 in /  1010 hPa WSW 2.6 mph /  4.2 km/h 3.5 mph /  5.6 km/h 95 % 0.00 in /  0 mm
10:56 73.8 °F /  23.2 °C 72.3 °F /  22.4 °C 29.83 in /  1010 hPa SW 1.4 mph /  2.3 km/h 6.9 mph /  11.1 km/h 95 % 0.00 in /  0 mm
11:02 73.9 °F /  23.3 °C 72.1 °F /  22.3 °C 29.83 in /  1010 hPa West 0.1 mph /  0.2 km/h 1.2 mph /  1.9 km/h 94 % 0.00 in /  0 mm
11:06 74.1 °F /  23.4 °C 72.3 °F /  22.4 °C 29.83 in /  1010 hPa WSW 0.5 mph /  0.8 km/h 1.2 mph /  1.9 km/h 94 % 0.00 in /  0 mm
11:11 74.3 °F /  23.5 °C 72.1 °F /  22.3 °C 29.83 in /  1010 hPa SSE 0.5 mph /  0.8 km/h 2.3 mph /  3.7 km/h 93 % 0.00 in /  0 mm
11:16 74.5 °F /  23.6 °C 72.0 °F /  22.2 °C 29.83 in /  1010 hPa SSE 0.8 mph /  1.3 km/h 2.0 mph /  3.2 km/h 92 % 0.00 in /  0 mm
11:21 74.6 °F /  23.7 °C 71.8 °F /  22.1 °C 29.83 in /  1010 hPa WSW 0.1 mph /  0.2 km/h   91 % 0.00 in /  0 mm
11:27 74.9 °F /  23.8 °C 72.1 °F /  22.3 °C 29.83 in /  1010 hPa WSW 0.2 mph /  0.3 km/h 1.2 mph /  1.9 km/h 91 % 0.00 in /  0 mm
11:32 75.1 °F /  23.9 °C 72.3 °F /  22.4 °C 29.83 in /  1010 hPa SW 0.5 mph /  0.8 km/h 4.6 mph /  7.4 km/h 91 % 0.00 in /  0 mm
11:42 75.4 °F /  24.1 °C 72.6 °F /  22.6 °C 29.83 in /  1010 hPa WNW 0.4 mph /  0.6 km/h 3.5 mph /  5.6 km/h 91 % 0.00 in /  0 mm
11:47 75.7 °F /  24.3 °C 72.6 °F /  22.6 °C 29.83 in /  1010 hPa SW 1.4 mph /  2.3 km/h 4.6 mph /  7.4 km/h 90 % 0.00 in /  0 mm
11:52 76.1 °F /  24.5 °C 73.3 °F /  22.9 °C 29.83 in /  1010 hPa WSW 2.0 mph /  3.2 km/h 2.3 mph /  3.7 km/h 91 % 0.00 in /  0 mm
11:57 76.2 °F /  24.6 °C 72.7 °F /  22.6 °C 29.83 in /  1010 hPa WSW 3.2 mph /  5.1 km/h 4.0 mph /  6.4 km/h 89 % 0.00 in /  0 mm
12:02 76.4 °F /  24.7 °C 72.6 °F /  22.6 °C 29.83 in /  1010 hPa WSW 2.5 mph /  4 km/h 4.6 mph /  7.4 km/h 88 % 0.00 in /  0 mm
12:07 76.7 °F /  24.8 °C 72.5 °F /  22.5 °C 29.83 in /  1010 hPa West 3.7 mph /  6 km/h 6.9 mph /  11.1 km/h 87 % 0.00 in /  0 mm
12:12 77.0 °F /  25 °C 72.5 °F /  22.5 °C 29.83 in /  1010 hPa West 3.7 mph /  6 km/h 6.9 mph /  11.1 km/h 86 % 0.00 in /  0 mm
12:17 77.0 °F /  25 °C 71.8 °F /  22.1 °C 29.83 in /  1010 hPa West 2.9 mph /  4.7 km/h 6.9 mph /  11.1 km/h 84 % 0.00 in /  0 mm
12:22 77.1 °F /  25.1 °C 71.9 °F /  22.2 °C 29.83 in /  1010 hPa West 3.7 mph /  6 km/h 6.0 mph /  9.7 km/h 84 % 0.00 in /  0 mm
12:27 77.0 °F /  25 °C 71.8 °F /  22.1 °C 29.82 in /  1009.7 hPa WSW 1.1 mph /  1.8 km/h 4.0 mph /  6.4 km/h 84 % 0.00 in /  0 mm
12:32 77.1 °F /  25.1 °C 71.9 °F /  22.2 °C 29.82 in /  1009.7 hPa WSW 1.7 mph /  2.7 km/h 3.5 mph /  5.6 km/h 84 % 0.00 in /  0 mm
12:37 77.2 °F /  25.1 °C 72.3 °F /  22.4 °C 29.82 in /  1009.7 hPa WSW 0.6 mph /  1 km/h 2.3 mph /  3.7 km/h 85 % 0.00 in /  0 mm
12:42 77.2 °F /  25.1 °C 72.0 °F /  22.2 °C 29.82 in /  1009.7 hPa WSW 2.1 mph /  3.4 km/h 6.9 mph /  11.1 km/h 84 % 0.00 in /  0 mm
12:47 77.1 °F /  25.1 °C 71.5 °F /  21.9 °C 29.82 in /  1009.7 hPa WSW 0.6 mph /  1 km/h 2.3 mph /  3.7 km/h 83 % 0.00 in /  0 mm
12:52 77.1 °F /  25.1 °C 71.5 °F /  21.9 °C 29.82 in /  1009.7 hPa WSW 0.1 mph /  0.2 km/h 3.5 mph /  5.6 km/h 83 % 0.00 in /  0 mm
12:57 77.1 °F /  25.1 °C 71.5 °F /  21.9 °C 29.82 in /  1009.7 hPa Calm   1.0 mph /  1.6 km/h 83 % 0.00 in /  0 mm
13:02 77.1 °F /  25.1 °C 71.5 °F /  21.9 °C 29.82 in /  1009.7 hPa West 1.1 mph /  1.8 km/h 2.3 mph /  3.7 km/h 83 % 0.00 in /  0 mm
13:07 77.1 °F /  25.1 °C 71.5 °F /  21.9 °C 29.82 in /  1009.7 hPa WSW 2.0 mph /  3.2 km/h 3.5 mph /  5.6 km/h 83 % 0.00 in /  0 mm
13:12 77.3 °F /  25.2 °C 72.1 °F /  22.3 °C 29.81 in /  1009.4 hPa West 0.8 mph /  1.3 km/h 2.3 mph /  3.7 km/h 84 % 0.00 in /  0 mm
13:13 77.3 °F /  25.2 °C 72.1 °F /  22.3 °C 29.81 in /  1009.4 hPa WSW 1.1 mph /  1.8 km/h 3.5 mph /  5.6 km/h 84 % 0.00 in /  0 mm
13:18 77.5 °F /  25.3 °C 71.6 °F /  22 °C 29.81 in /  1009.4 hPa SW 0.9 mph /  1.4 km/h 3.5 mph /  5.6 km/h 82 % 0.00 in /  0 mm
13:23 77.6 °F /  25.3 °C 71.3 °F /  21.8 °C 29.81 in /  1009.4 hPa SW 1.8 mph /  2.9 km/h 3.5 mph /  5.6 km/h 81 % 0.00 in /  0 mm
13:28 77.6 °F /  25.3 °C 71.3 °F /  21.8 °C 29.81 in /  1009.4 hPa SW 0.6 mph /  1 km/h 2.3 mph /  3.7 km/h 81 % 0.00 in /  0 mm
13:33 77.7 °F /  25.4 °C 71.4 °F /  21.9 °C 29.81 in /  1009.4 hPa WNW 3.2 mph /  5.1 km/h 5.8 mph /  9.3 km/h 81 % 0.00 in /  0 mm
13:38 77.9 °F /  25.5 °C 71.6 °F /  22 °C 29.81 in /  1009.4 hPa West 0.5 mph /  0.8 km/h 3.5 mph /  5.6 km/h 81 % 0.00 in /  0 mm
13:43 78.0 °F /  25.6 °C 72.1 °F /  22.3 °C 29.81 in /  1009.4 hPa WSW 3.4 mph /  5.5 km/h 5.8 mph /  9.3 km/h 82 % 0.00 in /  0 mm
13:48 78.1 °F /  25.6 °C 72.2 °F /  22.3 °C 29.80 in /  1009 hPa WSW 2.4 mph /  3.9 km/h 3.5 mph /  5.6 km/h 82 % 0.00 in /  0 mm
13:53 78.2 °F /  25.7 °C 71.9 °F /  22.2 °C 29.80 in /  1009 hPa West 0.6 mph /  1 km/h 4.6 mph /  7.4 km/h 81 % 0.00 in /  0 mm
13:58 78.2 °F /  25.7 °C 71.9 °F /  22.2 °C 29.80 in /  1009 hPa West 0.8 mph /  1.3 km/h 3.5 mph /  5.6 km/h 81 % 0.00 in /  0 mm
14:03 78.3 °F /  25.7 °C 72.3 °F /  22.4 °C 29.80 in /  1009 hPa WSW 1.1 mph /  1.8 km/h 3.5 mph /  5.6 km/h 82 % 0.00 in /  0 mm
14:08 78.4 °F /  25.8 °C 71.7 °F /  22.1 °C 29.80 in /  1009 hPa WSW 3.0 mph /  4.8 km/h 5.8 mph /  9.3 km/h 80 % 0.00 in /  0 mm
14:13 78.5 °F /  25.8 °C 71.4 °F /  21.9 °C 29.80 in /  1009 hPa West 1.6 mph /  2.6 km/h 4.6 mph /  7.4 km/h 79 % 0.00 in /  0 mm
14:18 78.7 °F /  25.9 °C 71.6 °F /  22 °C 29.80 in /  1009 hPa Calm   2.3 mph /  3.7 km/h 79 % 0.00 in /  0 mm
14:23 78.9 °F /  26.1 °C 72.2 °F /  22.3 °C 29.80 in /  1009 hPa West 2.2 mph /  3.5 km/h 4.6 mph /  7.4 km/h 80 % 0.00 in /  0 mm
14:28 79.2 °F /  26.2 °C 72.1 °F /  22.3 °C 29.79 in /  1008.7 hPa West 2.6 mph /  4.2 km/h 4.0 mph /  6.4 km/h 79 % 0.00 in /  0 mm
14:33 79.6 °F /  26.4 °C 71.8 °F /  22.1 °C 29.79 in /  1008.7 hPa SW 5.7 mph /  9.2 km/h 11.5 mph /  18.5 km/h 77 % 0.00 in /  0 mm
14:38 79.8 °F /  26.6 °C 70.8 °F /  21.6 °C 29.80 in /  1009 hPa SW 4.4 mph /  7.1 km/h 8.1 mph /  13 km/h 74 % 0.00 in /  0 mm
14:48 79.7 °F /  26.5 °C 71.1 °F /  21.7 °C 29.79 in /  1008.7 hPa WSW 4.3 mph /  6.9 km/h 8.1 mph /  13 km/h 75 % 0.00 in /  0 mm
14:53 79.7 °F /  26.5 °C 71.5 °F /  21.9 °C 29.79 in /  1008.7 hPa WSW 1.8 mph /  2.9 km/h 4.6 mph /  7.4 km/h 76 % 0.00 in /  0 mm
14:58 79.7 °F /  26.5 °C 71.5 °F /  21.9 °C 29.79 in /  1008.7 hPa WSW 5.9 mph /  9.5 km/h 8.0 mph /  12.9 km/h 76 % 0.00 in /  0 mm
15:04 79.7 °F /  26.5 °C 70.7 °F /  21.5 °C 29.79 in /  1008.7 hPa WNW 1.2 mph /  1.9 km/h 5.8 mph /  9.3 km/h 74 % 0.00 in /  0 mm
15:09 79.9 °F /  26.6 °C 70.9 °F /  21.6 °C 29.79 in /  1008.7 hPa WNW 2.1 mph /  3.4 km/h 5.0 mph /  8 km/h 74 % 0.00 in /  0 mm
15:14 80.2 °F /  26.8 °C 70.8 °F /  21.6 °C 29.79 in /  1008.7 hPa West 4.6 mph /  7.4 km/h 6.9 mph /  11.1 km/h 73 % 0.00 in /  0 mm
15:19 80.5 °F /  26.9 °C 70.6 °F /  21.4 °C 29.79 in /  1008.7 hPa West 4.7 mph /  7.6 km/h 6.0 mph /  9.7 km/h 72 % 0.00 in /  0 mm
15:24 80.8 °F /  27.1 °C 70.9 °F /  21.6 °C 29.79 in /  1008.7 hPa WNW 3.0 mph /  4.8 km/h 4.6 mph /  7.4 km/h 72 % 0.00 in /  0 mm
15:29 80.9 °F /  27.2 °C 70.6 °F /  21.4 °C 29.79 in /  1008.7 hPa West 2.5 mph /  4 km/h 8.1 mph /  13 km/h 71 % 0.00 in /  0 mm
15:34 81.0 °F /  27.2 °C 71.1 °F /  21.7 °C 29.78 in /  1008.4 hPa WSW 0.5 mph /  0.8 km/h 4.6 mph /  7.4 km/h 72 % 0.00 in /  0 mm
15:39 81.3 °F /  27.4 °C 70.2 °F /  21.2 °C 29.78 in /  1008.4 hPa West 3.6 mph /  5.8 km/h 6.0 mph /  9.7 km/h 69 % 0.00 in /  0 mm
15:44 81.7 °F /  27.6 °C 71.0 °F /  21.7 °C 29.78 in /  1008.4 hPa South 2.0 mph /  3.2 km/h 5.8 mph /  9.3 km/h 70 % 0.00 in /  0 mm
15:49 82.1 °F /  27.8 °C 71.3 °F /  21.8 °C 29.78 in /  1008.4 hPa SW 5.7 mph /  9.2 km/h 10.4 mph /  16.7 km/h 70 % 0.00 in /  0 mm
15:54 82.4 °F /  28 °C 69.4 °F /  20.8 °C 29.78 in /  1008.4 hPa West 4.3 mph /  6.9 km/h 9.2 mph /  14.8 km/h 65 % 0.00 in /  0 mm
15:59 82.6 °F /  28.1 °C 69.6 °F /  20.9 °C 29.78 in /  1008.4 hPa West 1.1 mph /  1.8 km/h 4.0 mph /  6.4 km/h 65 % 0.00 in /  0 mm
16:04 82.7 °F /  28.2 °C 69.3 °F /  20.7 °C 29.78 in /  1008.4 hPa WNW 1.6 mph /  2.6 km/h 4.0 mph /  6.4 km/h 64 % 0.00 in /  0 mm
16:09 82.8 °F /  28.2 °C 69.8 °F /  21 °C 29.78 in /  1008.4 hPa SSW 0.9 mph /  1.4 km/h 2.3 mph /  3.7 km/h 65 % 0.00 in /  0 mm
16:14 82.7 °F /  28.2 °C 68.8 °F /  20.4 °C 29.78 in /  1008.4 hPa WNW 2.6 mph /  4.2 km/h 4.0 mph /  6.4 km/h 63 % 0.00 in /  0 mm
16:19 82.7 °F /  28.2 °C 69.7 °F /  20.9 °C 29.78 in /  1008.4 hPa East 0.2 mph /  0.3 km/h 1.2 mph /  1.9 km/h 65 % 0.00 in /  0 mm
16:24 82.7 °F /  28.2 °C 69.3 °F /  20.7 °C 29.78 in /  1008.4 hPa WSW 2.5 mph /  4 km/h 6.0 mph /  9.7 km/h 64 % 0.00 in /  0 mm
16:34 82.4 °F /  28 °C 68.5 °F /  20.3 °C 29.78 in /  1008.4 hPa West 2.8 mph /  4.5 km/h 6.9 mph /  11.1 km/h 63 % 0.00 in /  0 mm
16:39 82.4 °F /  28 °C 69.4 °F /  20.8 °C 29.78 in /  1008.4 hPa NW 1.4 mph /  2.3 km/h 5.8 mph /  9.3 km/h 65 % 0.00 in /  0 mm
16:45 82.3 °F /  27.9 °C 68.4 °F /  20.2 °C 29.78 in /  1008.4 hPa WNW 4.4 mph /  7.1 km/h 6.0 mph /  9.7 km/h 63 % 0.00 in /  0 mm
16:50 82.2 °F /  27.9 °C 68.8 °F /  20.4 °C 29.78 in /  1008.4 hPa WSW 2.8 mph /  4.5 km/h 5.8 mph /  9.3 km/h 64 % 0.00 in /  0 mm
16:55 82.1 °F /  27.8 °C 68.7 °F /  20.4 °C 29.78 in /  1008.4 hPa WNW 2.4 mph /  3.9 km/h 5.8 mph /  9.3 km/h 64 % 0.01 in /  0.25 mm
17:00 82.1 °F /  27.8 °C 69.2 °F /  20.7 °C 29.78 in /  1008.4 hPa WNW 1.6 mph /  2.6 km/h 5.8 mph /  9.3 km/h 65 % 0.01 in /  0.25 mm
17:05 81.9 °F /  27.7 °C 68.5 °F /  20.3 °C 29.78 in /  1008.4 hPa WNW 1.2 mph /  1.9 km/h 3.5 mph /  5.6 km/h 64 % 0.01 in /  0.25 mm
17:10 81.7 °F /  27.6 °C 68.3 °F /  20.2 °C 29.79 in /  1008.7 hPa SW 2.1 mph /  3.4 km/h 4.0 mph /  6.4 km/h 64 % 0.01 in /  0.25 mm
17:15 81.5 °F /  27.5 °C 68.1 °F /  20.1 °C 29.78 in /  1008.4 hPa SW 2.3 mph /  3.7 km/h 5.0 mph /  8 km/h 64 % 0.01 in /  0.25 mm
17:20 81.4 °F /  27.4 °C 69.4 °F /  20.8 °C 29.78 in /  1008.4 hPa WNW 0.1 mph /  0.2 km/h 3.5 mph /  5.6 km/h 67 % 0.01 in /  0.25 mm
17:25 81.1 °F /  27.3 °C 68.2 °F /  20.1 °C 29.79 in /  1008.7 hPa WNW 3.1 mph /  5 km/h 5.8 mph /  9.3 km/h 65 % 0.01 in /  0.25 mm
17:30 80.6 °F /  27 °C 67.7 °F /  19.8 °C 29.79 in /  1008.7 hPa WNW 1.6 mph /  2.6 km/h 3.5 mph /  5.6 km/h 65 % 0.01 in /  0.25 mm
17:35 80.4 °F /  26.9 °C 68.4 °F /  20.2 °C 29.79 in /  1008.7 hPa SSW 0.5 mph /  0.8 km/h 3.5 mph /  5.6 km/h 67 % 0.01 in /  0.25 mm
17:40 80.3 °F /  26.8 °C 68.3 °F /  20.2 °C 29.79 in /  1008.7 hPa WSW 2.5 mph /  4 km/h 4.6 mph /  7.4 km/h 67 % 0.01 in /  0.25 mm
17:45 80.0 °F /  26.7 °C 66.7 °F /  19.3 °C 29.79 in /  1008.7 hPa SW 1.3 mph /  2.1 km/h 6.9 mph /  11.1 km/h 64 % 0.01 in /  0.25 mm
17:50 79.8 °F /  26.6 °C 66.5 °F /  19.2 °C 29.79 in /  1008.7 hPa SW 5.1 mph /  8.2 km/h 9.2 mph /  14.8 km/h 64 % 0.01 in /  0.25 mm
17:55 79.6 °F /  26.4 °C 65.9 °F /  18.8 °C 29.79 in /  1008.7 hPa NNW 7.0 mph /  11.3 km/h 12.7 mph /  20.4 km/h 63 % 0.00 in /  0 mm
18:00 79.3 °F /  26.3 °C 65.1 °F /  18.4 °C 29.79 in /  1008.7 hPa WSW 3.8 mph /  6.1 km/h 8.1 mph /  13 km/h 62 % 0.00 in /  0 mm
18:05 79.1 °F /  26.2 °C 64.0 °F /  17.8 °C 29.79 in /  1008.7 hPa WNW 3.8 mph /  6.1 km/h 10.4 mph /  16.7 km/h 60 % 0.00 in /  0 mm
18:15 78.8 °F /  26 °C 64.2 °F /  17.9 °C 29.79 in /  1008.7 hPa West 4.0 mph /  6.4 km/h 6.9 mph /  11.1 km/h 61 % 0.00 in /  0 mm
18:20 78.7 °F /  25.9 °C 64.1 °F /  17.8 °C 29.79 in /  1008.7 hPa West 4.1 mph /  6.6 km/h 6.0 mph /  9.7 km/h 61 % 0.00 in /  0 mm
18:25 78.6 °F /  25.9 °C 64.0 °F /  17.8 °C 29.80 in /  1009 hPa WNW 7.6 mph /  12.2 km/h 10.4 mph /  16.7 km/h 61 % 0.00 in /  0 mm
18:30 78.4 °F /  25.8 °C 63.4 °F /  17.4 °C 29.80 in /  1009 hPa SW 4.9 mph /  7.9 km/h 9.2 mph /  14.8 km/h 60 % 0.00 in /  0 mm
18:35 78.2 °F /  25.7 °C 63.2 °F /  17.3 °C 29.80 in /  1009 hPa WNW 4.8 mph /  7.7 km/h 10.4 mph /  16.7 km/h 60 % 0.00 in /  0 mm
18:40 78.0 °F /  25.6 °C 63.5 °F /  17.5 °C 29.80 in /  1009 hPa WSW 6.1 mph /  9.8 km/h 9.2 mph /  14.8 km/h 61 % 0.00 in /  0 mm
18:45 77.7 °F /  25.4 °C 63.6 °F /  17.6 °C 29.81 in /  1009.4 hPa West 0.5 mph /  0.8 km/h 3.5 mph /  5.6 km/h 62 % 0.00 in /  0 mm
18:50 77.6 °F /  25.3 °C 64.5 °F /  18.1 °C 29.81 in /  1009.4 hPa West 2.1 mph /  3.4 km/h 9.2 mph /  14.8 km/h 64 % 0.00 in /  0 mm
18:55 77.3 °F /  25.2 °C 64.2 °F /  17.9 °C 29.81 in /  1009.4 hPa WSW 3.8 mph /  6.1 km/h 6.9 mph /  11.1 km/h 64 % 0.00 in /  0 mm
19:00 77.0 °F /  25 °C 63.4 °F /  17.4 °C 29.81 in /  1009.4 hPa West 5.8 mph /  9.3 km/h 11.0 mph /  17.7 km/h 63 % 0.00 in /  0 mm
19:05 76.7 °F /  24.8 °C 62.7 °F /  17.1 °C 29.82 in /  1009.7 hPa West 1.2 mph /  1.9 km/h 3.5 mph /  5.6 km/h 62 % 0.00 in /  0 mm
19:10 76.6 °F /  24.8 °C 63.1 °F /  17.3 °C 29.82 in /  1009.7 hPa WSW 4.2 mph /  6.8 km/h 8.1 mph /  13 km/h 63 % 0.00 in /  0 mm
19:15 76.3 °F /  24.6 °C 63.2 °F /  17.3 °C 29.82 in /  1009.7 hPa West 3.6 mph /  5.8 km/h 8.0 mph /  12.9 km/h 64 % 0.00 in /  0 mm
19:20 76.1 °F /  24.5 °C 62.6 °F /  17 °C 29.82 in /  1009.7 hPa NNW 3.9 mph /  6.3 km/h 9.2 mph /  14.8 km/h 63 % 0.00 in /  0 mm
19:22 76.0 °F /  24.4 °C 62.9 °F /  17.2 °C 29.82 in /  1009.7 hPa WNW 4.6 mph /  7.4 km/h 11.0 mph /  17.7 km/h 64 % 0.00 in /  0 mm
19:27 75.9 °F /  24.4 °C 61.9 °F /  16.6 °C 29.83 in /  1010 hPa WNW 7.6 mph /  12.2 km/h 12.7 mph /  20.4 km/h 62 % 0.00 in /  0 mm
19:32 75.7 °F /  24.3 °C 61.8 °F /  16.6 °C 29.83 in /  1010 hPa NW 6.7 mph /  10.8 km/h 10.4 mph /  16.7 km/h 62 % 0.00 in /  0 mm
19:37 75.5 °F /  24.2 °C 61.1 °F /  16.2 °C 29.84 in /  1010.4 hPa West 6.9 mph /  11.1 km/h 12.0 mph /  19.3 km/h 61 % 0.00 in /  0 mm
19:42 75.3 °F /  24.1 °C 61.4 °F /  16.3 °C 29.83 in /  1010 hPa WNW 7.4 mph /  11.9 km/h 10.4 mph /  16.7 km/h 62 % 0.00 in /  0 mm
19:47 75.1 °F /  23.9 °C 60.3 °F /  15.7 °C 29.84 in /  1010.4 hPa WNW 5.2 mph /  8.4 km/h 11.5 mph /  18.5 km/h 60 % 0.00 in /  0 mm
19:52 74.9 °F /  23.8 °C 60.1 °F /  15.6 °C 29.84 in /  1010.4 hPa WNW 5.2 mph /  8.4 km/h 10.4 mph /  16.7 km/h 60 % 0.00 in /  0 mm
19:57 74.7 °F /  23.7 °C 59.9 °F /  15.5 °C 29.85 in /  1010.7 hPa WNW 0.5 mph /  0.8 km/h 3.0 mph /  4.8 km/h 60 % 0.00 in /  0 mm
20:02 74.6 °F /  23.7 °C 59.8 °F /  15.4 °C 29.85 in /  1010.7 hPa WNW 4.2 mph /  6.8 km/h 8.1 mph /  13 km/h 60 % 0.00 in /  0 mm
20:07 74.4 °F /  23.6 °C 59.6 °F /  15.3 °C 29.85 in /  1010.7 hPa NW 3.9 mph /  6.3 km/h 10.4 mph /  16.7 km/h 60 % 0.00 in /  0 mm
20:12 74.2 °F /  23.4 °C 59.9 °F /  15.5 °C 29.85 in /  1010.7 hPa WSW 1.2 mph /  1.9 km/h 5.0 mph /  8 km/h 61 % 0.00 in /  0 mm
20:17 74.0 °F /  23.3 °C 60.2 °F /  15.7 °C 29.85 in /  1010.7 hPa WNW 4.7 mph /  7.6 km/h 11.0 mph /  17.7 km/h 62 % 0.00 in /  0 mm
20:21 73.9 °F /  23.3 °C 59.6 °F /  15.3 °C 29.85 in /  1010.7 hPa West 5.2 mph /  8.4 km/h 7.0 mph /  11.3 km/h 61 % 0.00 in /  0 mm
20:26 73.7 °F /  23.2 °C 59.4 °F /  15.2 °C 29.85 in /  1010.7 hPa WNW 2.6 mph /  4.2 km/h 5.8 mph /  9.3 km/h 61 % 0.00 in /  0 mm
20:31 73.5 °F /  23.1 °C 59.7 °F /  15.4 °C 29.85 in /  1010.7 hPa West 4.9 mph /  7.9 km/h 10.4 mph /  16.7 km/h 62 % 0.00 in /  0 mm
20:36 73.4 °F /  23 °C 59.6 °F /  15.3 °C 29.86 in /  1011.1 hPa WNW 4.3 mph /  6.9 km/h 9.0 mph /  14.5 km/h 62 % 0.00 in /  0 mm
20:41 73.3 °F /  22.9 °C 59.5 °F /  15.3 °C 29.87 in /  1011.4 hPa West 2.6 mph /  4.2 km/h 5.8 mph /  9.3 km/h 62 % 0.00 in /  0 mm
20:46 73.3 °F /  22.9 °C 59.5 °F /  15.3 °C 29.87 in /  1011.4 hPa WSW 3.6 mph /  5.8 km/h 4.6 mph /  7.4 km/h 62 % 0.00 in /  0 mm
20:51 73.1 °F /  22.8 °C 59.8 °F /  15.4 °C 29.87 in /  1011.4 hPa NW 0.7 mph /  1.1 km/h 5.8 mph /  9.3 km/h 63 % 0.00 in /  0 mm
20:56 73.0 °F /  22.8 °C 59.7 °F /  15.4 °C 29.88 in /  1011.7 hPa SW 4.8 mph /  7.7 km/h 7.0 mph /  11.3 km/h 63 % 0.00 in /  0 mm
21:01 72.9 °F /  22.7 °C 59.6 °F /  15.3 °C 29.88 in /  1011.7 hPa WNW 4.4 mph /  7.1 km/h 8.1 mph /  13 km/h 63 % 0.00 in /  0 mm
21:06 72.8 °F /  22.7 °C 59.5 °F /  15.3 °C 29.88 in /  1011.7 hPa NNE 4.4 mph /  7.1 km/h 11.5 mph /  18.5 km/h 63 % 0.00 in /  0 mm
21:12 72.7 °F /  22.6 °C 58.9 °F /  14.9 °C 29.88 in /  1011.7 hPa WNW 4.7 mph /  7.6 km/h 8.1 mph /  13 km/h 62 % 0.00 in /  0 mm
21:17 72.7 °F /  22.6 °C 59.4 °F /  15.2 °C 29.88 in /  1011.7 hPa WSW 5.9 mph /  9.5 km/h 9.2 mph /  14.8 km/h 63 % 0.00 in /  0 mm
21:22 72.6 °F /  22.6 °C 59.3 °F /  15.2 °C 29.88 in /  1011.7 hPa West 2.3 mph /  3.7 km/h 11.5 mph /  18.5 km/h 63 % 0.00 in /  0 mm
21:27 72.6 °F /  22.6 °C 59.3 °F /  15.2 °C 29.89 in /  1012.1 hPa SW 2.3 mph /  3.7 km/h 5.8 mph /  9.3 km/h 63 % 0.00 in /  0 mm
21:32 72.6 °F /  22.6 °C 59.7 °F /  15.4 °C 29.89 in /  1012.1 hPa WNW 5.4 mph /  8.7 km/h 7.0 mph /  11.3 km/h 64 % 0.00 in /  0 mm
21:37 72.5 °F /  22.5 °C 59.6 °F /  15.3 °C 29.89 in /  1012.1 hPa WNW 2.9 mph /  4.7 km/h 5.8 mph /  9.3 km/h 64 % 0.00 in /  0 mm
21:42 72.4 °F /  22.4 °C 60.0 °F /  15.6 °C 29.89 in /  1012.1 hPa West 1.7 mph /  2.7 km/h 3.5 mph /  5.6 km/h 65 % 0.00 in /  0 mm
21:47 72.3 °F /  22.4 °C 59.9 °F /  15.5 °C 29.89 in /  1012.1 hPa WSW 0.2 mph /  0.3 km/h 1.2 mph /  1.9 km/h 65 % 0.00 in /  0 mm
21:52 72.3 °F /  22.4 °C 59.9 °F /  15.5 °C 29.89 in /  1012.1 hPa West 3.4 mph /  5.5 km/h 10.0 mph /  16.1 km/h 65 % 0.00 in /  0 mm
21:57 72.1 °F /  22.3 °C 59.7 °F /  15.4 °C 29.90 in /  1012.4 hPa SW 1.6 mph /  2.6 km/h 5.0 mph /  8 km/h 65 % 0.00 in /  0 mm
22:02 72.0 °F /  22.2 °C 60.0 °F /  15.6 °C 29.90 in /  1012.4 hPa Calm   1.2 mph /  1.9 km/h 66 % 0.00 in /  0 mm
22:07 71.9 °F /  22.2 °C 59.9 °F /  15.5 °C 29.90 in /  1012.4 hPa WNW 3.2 mph /  5.1 km/h 8.1 mph /  13 km/h 66 % 0.00 in /  0 mm
22:12 71.8 °F /  22.1 °C 60.2 °F /  15.7 °C 29.89 in /  1012.1 hPa WNW 1.3 mph /  2.1 km/h 4.6 mph /  7.4 km/h 67 % 0.00 in /  0 mm
22:17 71.6 °F /  22 °C 58.8 °F /  14.9 °C 29.90 in /  1012.4 hPa WSW 5.0 mph /  8 km/h 8.1 mph /  13 km/h 64 % 0.00 in /  0 mm
22:22 71.6 °F /  22 °C 59.2 °F /  15.1 °C 29.90 in /  1012.4 hPa NW 4.2 mph /  6.8 km/h 8.1 mph /  13 km/h 65 % 0.00 in /  0 mm
22:27 71.6 °F /  22 °C 59.2 °F /  15.1 °C 29.90 in /  1012.4 hPa WNW 2.0 mph /  3.2 km/h 3.5 mph /  5.6 km/h 65 % 0.00 in /  0 mm
22:32 71.5 °F /  21.9 °C 59.1 °F /  15.1 °C 29.90 in /  1012.4 hPa WNW 4.0 mph /  6.4 km/h 5.8 mph /  9.3 km/h 65 % 0.00 in /  0 mm
22:37 71.4 °F /  21.9 °C 59.0 °F /  15 °C 29.90 in /  1012.4 hPa WNW 3.4 mph /  5.5 km/h 8.1 mph /  13 km/h 65 % 0.00 in /  0 mm
22:42 71.4 °F /  21.9 °C 59.0 °F /  15 °C 29.91 in /  1012.8 hPa West 3.3 mph /  5.3 km/h 6.9 mph /  11.1 km/h 65 % 0.00 in /  0 mm
22:47 71.3 °F /  21.8 °C 58.5 °F /  14.7 °C 29.90 in /  1012.4 hPa WNW 0.9 mph /  1.4 km/h 4.0 mph /  6.4 km/h 64 % 0.00 in /  0 mm
22:52 71.2 °F /  21.8 °C 58.8 °F /  14.9 °C 29.90 in /  1012.4 hPa West 4.4 mph /  7.1 km/h 9.0 mph /  14.5 km/h 65 % 0.00 in /  0 mm
22:57 71.1 °F /  21.7 °C 58.7 °F /  14.8 °C 29.90 in /  1012.4 hPa WNW 3.4 mph /  5.5 km/h 10.4 mph /  16.7 km/h 65 % 0.00 in /  0 mm
23:02 71.1 °F /  21.7 °C 58.7 °F /  14.8 °C 29.90 in /  1012.4 hPa WSW 3.5 mph /  5.6 km/h 11.5 mph /  18.5 km/h 65 % 0.00 in /  0 mm
23:12 70.9 °F /  21.6 °C 58.5 °F /  14.7 °C 29.90 in /  1012.4 hPa West 0.4 mph /  0.6 km/h 3.5 mph /  5.6 km/h 65 % 0.00 in /  0 mm
23:18 70.8 °F /  21.6 °C 58.4 °F /  14.7 °C 29.90 in /  1012.4 hPa WNW 1.9 mph /  3.1 km/h 8.1 mph /  13 km/h 65 % 0.00 in /  0 mm
23:20 70.8 °F /  21.6 °C 58.4 °F /  14.7 °C 29.91 in /  1012.8 hPa NW 2.3 mph /  3.7 km/h 8.0 mph /  12.9 km/h 65 % 0.00 in /  0 mm
23:25 70.7 °F /  21.5 °C 58.4 °F /  14.7 °C 29.91 in /  1012.8 hPa SW 2.4 mph /  3.9 km/h 9.2 mph /  14.8 km/h 65 % 0.00 in /  0 mm
23:30 70.6 °F /  21.4 °C 57.8 °F /  14.3 °C 29.91 in /  1012.8 hPa SSW 3.3 mph /  5.3 km/h 8.1 mph /  13 km/h 64 % 0.00 in /  0 mm
23:35 70.5 °F /  21.4 °C 58.2 °F /  14.6 °C 29.91 in /  1012.8 hPa West 2.2 mph /  3.5 km/h 4.6 mph /  7.4 km/h 65 % 0.00 in /  0 mm
23:40 70.4 °F /  21.3 °C 58.1 °F /  14.5 °C 29.91 in /  1012.8 hPa WNW 1.7 mph /  2.7 km/h 4.6 mph /  7.4 km/h 65 % 0.00 in /  0 mm
23:45 70.3 °F /  21.3 °C 58.0 °F /  14.4 °C 29.92 in /  1013.1 hPa West 4.9 mph /  7.9 km/h 8.1 mph /  13 km/h 65 % 0.00 in /  0 mm
23:50 70.2 °F /  21.2 °C 57.9 °F /  14.4 °C 29.92 in /  1013.1 hPa West 2.0 mph /  3.2 km/h 3.5 mph /  5.6 km/h 65 % 0.00 in /  0 mm
23:55 70.1 °F /  21.2 °C 58.2 °F /  14.6 °C 29.91 in /  1012.8 hPa NW 1.7 mph /  2.7 km/h 3.5 mph /  5.6 km/h 66 % 0.00 in /  0 mm
Crab Meadow Weather
Compliments of Weather Underground - 3 mb

Script developed by  Jim McMurry - jmcmurry@mwt.net Adapted for the template by  Wim van der Kuil - Leuven-Template.eu

Astronomy: Neptune was discovered in 1846 (over 150 years ago). Since that time it has still yet to make a complete orbit around the sun, because one Neptune year lasts 165 Earth years!